createdAt,value
2022-12-08T00:02:02.894Z,24.67
2022-12-08T00:04:51.665Z,23.50
2022-12-08T00:07:37.428Z,24.67
2022-12-08T00:10:39.831Z,25.60
2022-12-08T00:12:57.124Z,26.43
2022-12-08T00:15:25.484Z,25.37
2022-12-08T00:17:53.838Z,26.13
2022-12-08T00:20:22.157Z,25.10
2022-12-08T00:22:50.570Z,25.40
2022-12-08T00:25:20.384Z,25.93
2022-12-08T00:27:48.892Z,24.50
2022-12-08T00:30:17.442Z,24.23
2022-12-08T00:32:45.740Z,23.90
2022-12-08T00:35:14.082Z,22.70
2022-12-08T00:37:42.538Z,22.97
2022-12-08T00:40:11.717Z,22.47
2022-12-08T00:42:41.382Z,23.13
2022-12-08T00:45:10.358Z,24.73
2022-12-08T00:47:38.671Z,23.30
2022-12-08T00:50:08.215Z,22.77
2022-12-08T00:52:36.829Z,22.53
2022-12-08T00:55:05.775Z,23.07
2022-12-08T00:57:34.429Z,23.00
2022-12-08T01:00:05.311Z,23.67
2022-12-08T01:02:34.485Z,21.10
2022-12-08T01:05:02.867Z,20.97
2022-12-08T01:07:31.135Z,20.87
2022-12-08T01:10:00.482Z,21.50
2022-12-08T01:12:30.471Z,20.73
2022-12-08T01:15:02.315Z,22.37
2022-12-08T01:17:32.594Z,21.80
2022-12-08T01:20:02.332Z,21.23
2022-12-08T01:22:32.355Z,20.83
2022-12-08T01:25:00.697Z,21.37
2022-12-08T01:27:29.013Z,21.77
2022-12-08T01:29:57.389Z,21.53
2022-12-08T01:32:25.642Z,21.83
2022-12-08T01:34:55.345Z,22.30
2022-12-08T01:37:23.700Z,19.93
2022-12-08T01:39:52.002Z,20.27
2022-12-08T01:42:22.245Z,20.37
2022-12-08T01:44:59.620Z,19.80
2022-12-08T01:47:33.075Z,18.47
2022-12-08T01:50:03.474Z,18.70
2022-12-08T01:52:38.888Z,20.20
2022-12-08T01:55:11.114Z,18.30
2022-12-08T01:57:44.987Z,18.87
2022-12-08T02:00:15.821Z,17.80
2022-12-08T02:02:53.489Z,17.30
2022-12-08T02:05:26.924Z,15.63
2022-12-08T02:07:56.932Z,15.57
2022-12-08T02:10:28.403Z,15.17
2022-12-08T02:12:59.408Z,14.77
2022-12-08T02:15:38.234Z,14.27
2022-12-08T02:18:24.287Z,13.17
2022-12-08T02:21:00.940Z,14.43
2022-12-08T02:23:38.070Z,14.40
2022-12-08T02:26:42.300Z,14.37
2022-12-08T02:29:49.807Z,13.73
2022-12-08T02:32:46.893Z,14.67
2022-12-08T02:35:23.139Z,14.00
2022-12-08T02:37:58.616Z,13.47
2022-12-08T02:40:31.042Z,17.17
2022-12-08T02:43:03.907Z,15.47
2022-12-08T02:45:36.018Z,16.43
2022-12-08T02:48:04.481Z,14.93
2022-12-08T02:50:34.179Z,15.37
2022-12-08T02:55:43.270Z,18.87
2022-12-08T02:58:35.467Z,15.67
2022-12-08T03:01:34.877Z,16.13
2022-12-08T03:04:10.026Z,15.93
2022-12-08T03:06:46.868Z,16.13
2022-12-08T03:09:21.301Z,15.63
2022-12-08T03:11:54.500Z,15.57
2022-12-08T03:14:23.807Z,15.63
2022-12-08T03:16:56.857Z,15.43
2022-12-08T03:19:28.459Z,14.80
2022-12-08T03:22:03.275Z,15.03
2022-12-08T03:24:34.348Z,14.63
2022-12-08T03:27:05.901Z,15.17
2022-12-08T03:29:34.851Z,14.60
2022-12-08T03:32:10.534Z,15.07
2022-12-08T03:34:43.327Z,13.60
2022-12-08T03:37:13.541Z,13.93
2022-12-08T03:39:41.927Z,14.53
2022-12-08T03:42:10.348Z,13.63
2022-12-08T03:44:38.580Z,15.40
2022-12-08T03:47:07.125Z,16.60
2022-12-08T03:49:35.409Z,14.97
2022-12-08T03:52:03.707Z,15.40
2022-12-08T03:54:33.410Z,14.83
2022-12-08T03:57:01.787Z,15.67
2022-12-08T03:59:30.118Z,16.63
2022-12-08T04:01:58.474Z,16.27
2022-12-08T04:04:26.976Z,17.17
2022-12-08T04:06:55.402Z,18.07
2022-12-08T04:09:23.841Z,16.60
2022-12-08T04:11:53.556Z,17.40
2022-12-08T04:14:22.023Z,17.60
2022-12-08T04:16:50.341Z,17.47
2022-12-08T04:19:18.707Z,18.43
2022-12-08T04:21:47.045Z,17.87
2022-12-08T04:24:15.388Z,17.73
2022-12-08T04:26:43.807Z,17.37
2022-12-08T04:29:13.507Z,16.33
2022-12-08T04:31:42.218Z,16.27
2022-12-08T04:34:10.938Z,15.77
2022-12-08T04:36:40.839Z,14.47
2022-12-08T04:39:09.256Z,14.77
2022-12-08T04:41:37.580Z,15.23
2022-12-08T04:44:06.138Z,15.07
2022-12-08T04:46:40.207Z,15.83
2022-12-08T04:49:11.402Z,15.63
2022-12-08T04:51:39.648Z,14.63
2022-12-08T04:54:08.081Z,14.23
2022-12-08T04:56:36.422Z,14.27
2022-12-08T04:59:05.136Z,13.37
2022-12-08T05:01:35.125Z,12.83
2022-12-08T05:04:03.916Z,13.40
2022-12-08T05:06:32.231Z,11.93
2022-12-08T05:09:00.533Z,11.23
2022-12-08T05:11:28.793Z,10.03
2022-12-08T05:13:57.164Z,10.07
2022-12-08T05:16:25.491Z,9.97
2022-12-08T05:18:55.282Z,10.00
2022-12-08T05:21:23.612Z,9.30
2022-12-08T05:23:51.915Z,9.60
2022-12-08T05:26:20.243Z,8.93
2022-12-08T05:28:48.567Z,9.80
2022-12-08T05:31:18.276Z,10.03
2022-12-08T05:33:47.415Z,10.07
2022-12-08T05:36:17.669Z,9.83
2022-12-08T05:38:46.852Z,9.53
2022-12-08T05:41:17.336Z,12.10
2022-12-08T05:43:45.709Z,14.77
2022-12-08T05:46:14.362Z,19.50
2022-12-08T05:48:42.917Z,18.77
2022-12-08T05:51:20.047Z,20.73
2022-12-08T05:53:49.540Z,20.20
2022-12-08T05:56:18.615Z,18.97
2022-12-08T05:58:47.085Z,23.37
2022-12-08T06:01:23.620Z,20.33
2022-12-08T06:03:52.541Z,20.90
2022-12-08T06:06:22.561Z,18.03
2022-12-08T06:08:51.154Z,16.23
2022-12-08T06:11:20.851Z,16.93
2022-12-08T06:13:50.112Z,11.80
2022-12-08T06:16:18.886Z,10.50
2022-12-08T06:18:47.760Z,26.63
2022-12-08T06:21:17.490Z,20.23
2022-12-08T06:23:49.902Z,16.70
2022-12-08T06:26:18.691Z,21.33
2022-12-08T06:28:47.099Z,22.47
2022-12-08T06:31:17.727Z,15.03
2022-12-08T06:33:46.310Z,10.60
2022-12-08T06:36:16.460Z,9.73
2022-12-08T06:38:46.832Z,12.37
2022-12-08T06:41:15.761Z,8.63
2022-12-08T06:43:44.127Z,5.90
2022-12-08T06:46:14.424Z,7.07
2022-12-08T06:48:42.875Z,7.30
2022-12-08T06:51:14.446Z,7.30
2022-12-08T06:53:43.901Z,4.80
2022-12-08T06:56:15.890Z,7.37
2022-12-08T06:58:48.973Z,6.00
2022-12-08T07:01:20.726Z,5.67
2022-12-08T07:03:49.186Z,5.03
2022-12-08T07:06:20.674Z,5.70
2022-12-08T07:08:48.937Z,6.37
2022-12-08T07:11:21.831Z,5.67
2022-12-08T07:13:51.487Z,5.80
2022-12-08T07:16:20.290Z,5.83
2022-12-08T07:18:48.696Z,5.43
2022-12-08T07:21:18.669Z,6.07
2022-12-08T07:23:54.239Z,5.67
2022-12-08T07:26:27.345Z,6.23
2022-12-08T07:28:56.025Z,7.70
2022-12-08T07:31:26.781Z,6.23
2022-12-08T07:33:55.359Z,6.53
2022-12-08T07:36:24.561Z,5.93
2022-12-08T07:38:54.421Z,5.43
2022-12-08T07:41:24.627Z,6.40
2022-12-08T07:43:54.676Z,6.80
2022-12-08T07:46:24.781Z,5.70
2022-12-08T07:48:54.175Z,4.97
2022-12-08T07:51:22.611Z,5.90
2022-12-08T07:53:54.662Z,5.23
2022-12-08T07:56:24.021Z,4.37
2022-12-08T07:58:53.932Z,3.97
2022-12-08T08:01:25.248Z,4.17
2022-12-08T08:03:54.719Z,4.07
2022-12-08T08:06:23.119Z,4.70
2022-12-08T08:08:51.793Z,6.10
2022-12-08T08:11:21.520Z,5.03
2022-12-08T08:13:50.999Z,4.27
2022-12-08T08:16:21.496Z,4.73
2022-12-08T08:18:50.959Z,3.63
2022-12-08T08:21:44.426Z,4.10
2022-12-08T08:24:09.863Z,4.37
2022-12-08T08:26:38.378Z,4.87
2022-12-08T08:29:06.745Z,4.60
2022-12-08T08:31:36.614Z,5.30
2022-12-08T08:34:06.522Z,6.03
2022-12-08T08:36:35.210Z,6.23
2022-12-08T08:39:04.774Z,4.00
2022-12-08T08:41:33.016Z,5.60
2022-12-08T08:44:01.393Z,7.70
2022-12-08T08:46:29.847Z,5.63
2022-12-08T08:48:59.849Z,4.30
2022-12-08T08:51:28.233Z,5.10
2022-12-08T08:53:56.737Z,4.50
2022-12-08T08:56:25.175Z,5.30
2022-12-08T08:58:54.380Z,3.40
2022-12-08T09:01:25.101Z,4.30
2022-12-08T09:03:54.027Z,4.13
2022-12-08T09:06:26.184Z,4.40
2022-12-08T09:08:54.640Z,2.83
2022-12-08T09:11:23.673Z,3.40
2022-12-08T09:13:53.303Z,4.47
2022-12-08T09:16:21.784Z,2.80
2022-12-08T09:18:50.468Z,3.40
2022-12-08T09:21:22.818Z,2.90
2022-12-08T09:23:54.644Z,4.00
2022-12-08T09:26:23.916Z,2.77
2022-12-08T09:28:53.521Z,3.83
2022-12-08T09:31:23.223Z,3.23
2022-12-08T09:33:52.669Z,4.10
2022-12-08T09:36:21.894Z,3.37
2022-12-08T09:38:51.114Z,3.17
2022-12-08T09:41:36.530Z,3.90
2022-12-08T09:44:24.449Z,4.07
2022-12-08T09:46:54.403Z,3.33
2022-12-08T09:49:29.609Z,3.10
2022-12-08T09:51:58.682Z,3.70
2022-12-08T09:54:36.904Z,3.80
2022-12-08T09:57:14.462Z,3.40
2022-12-08T09:59:48.907Z,3.57
2022-12-08T10:02:23.488Z,2.90
2022-12-08T10:04:52.119Z,3.07
2022-12-08T10:11:58.780Z,2.50
2022-12-08T10:14:34.910Z,2.97
2022-12-08T10:17:14.122Z,2.97
2022-12-08T10:19:48.243Z,3.70
2022-12-08T10:22:26.381Z,3.23
2022-12-08T10:25:09.582Z,3.70
2022-12-08T10:27:52.999Z,4.17
2022-12-08T10:31:00.454Z,4.03
2022-12-08T10:33:36.479Z,4.23
2022-12-08T10:36:17.522Z,3.50
2022-12-08T10:38:48.103Z,4.17
2022-12-08T10:41:39.677Z,3.00
2022-12-08T10:44:12.210Z,2.90
2022-12-08T10:47:13.654Z,2.43
2022-12-08T10:50:25.190Z,2.80
2022-12-08T10:53:14.053Z,1.90
2022-12-08T10:56:09.110Z,1.77
2022-12-08T10:59:18.331Z,2.10
2022-12-08T11:02:19.551Z,2.20
2022-12-08T11:05:07.778Z,1.60
2022-12-08T11:07:37.667Z,2.20
2022-12-08T11:10:07.604Z,2.13
2022-12-08T11:12:37.602Z,2.27
2022-12-08T11:15:06.854Z,1.80
2022-12-08T11:17:39.682Z,1.97
2022-12-08T11:20:23.695Z,1.63
2022-12-08T11:22:57.665Z,1.87
2022-12-08T11:25:27.096Z,1.80
2022-12-08T11:27:58.510Z,1.60
2022-12-08T11:30:29.584Z,1.43
2022-12-08T11:33:02.526Z,0.70
2022-12-08T11:35:34.934Z,0.87
2022-12-08T11:38:21.185Z,0.60
2022-12-08T11:40:53.527Z,0.50
2022-12-08T11:43:27.143Z,0.60
2022-12-08T11:46:00.821Z,0.70
2022-12-08T11:48:36.588Z,0.30
2022-12-08T11:51:12.419Z,0.10
2022-12-08T11:53:48.802Z,0.10
2022-12-08T11:56:22.063Z,0.10
2022-12-08T11:58:55.615Z,0.10
2022-12-08T12:01:27.012Z,0.10
2022-12-08T12:04:08.667Z,0.10
2022-12-08T12:07:04.512Z,0.10
2022-12-08T12:09:45.710Z,0.17
2022-12-08T12:12:23.320Z,0.10
2022-12-08T12:15:16.795Z,0.10
2022-12-08T12:17:50.413Z,0.20
2022-12-08T12:20:25.280Z,0.10
2022-12-08T12:22:59.234Z,0.10
2022-12-08T12:25:29.618Z,0.10
2022-12-08T12:28:01.736Z,0.10
2022-12-08T12:30:50.875Z,0.10
2022-12-08T12:33:20.093Z,0.20
2022-12-08T12:35:49.412Z,0.10
2022-12-08T12:38:41.732Z,0.20
2022-12-08T12:41:13.657Z,0.90
2022-12-08T12:44:02.189Z,0.57
2022-12-08T12:46:54.755Z,0.90
2022-12-08T12:50:15.188Z,1.60
2022-12-08T12:52:48.227Z,2.07
2022-12-08T12:55:28.826Z,0.60
2022-12-08T12:58:00.444Z,1.10
2022-12-08T13:00:29.608Z,1.77
2022-12-08T13:02:59.672Z,2.37
2022-12-08T13:05:31.280Z,2.03
2022-12-08T13:08:03.625Z,0.63
2022-12-08T13:10:34.616Z,1.10
2022-12-08T13:13:16.584Z,1.90
2022-12-08T13:15:52.493Z,0.90
2022-12-08T13:18:24.927Z,0.73
2022-12-08T13:20:55.501Z,0.60
2022-12-08T13:23:42.394Z,0.60
2022-12-08T13:26:18.419Z,0.60
2022-12-08T13:29:19.104Z,2.13
2022-12-08T13:31:51.471Z,3.07
2022-12-08T13:34:32.554Z,3.63
2022-12-08T13:37:23.522Z,3.40
2022-12-08T13:39:56.490Z,4.20
2022-12-08T13:42:32.437Z,4.07
2022-12-08T13:54:52.357Z,20.07
2022-12-08T13:57:09.973Z,2.70
2022-12-08T13:59:35.590Z,9.03
2022-12-08T14:02:18.164Z,8.67
2022-12-08T14:05:16.884Z,6.13
2022-12-08T14:07:37.937Z,15.60
2022-12-08T14:10:10.955Z,3.47
2022-12-08T14:12:44.880Z,5.57
2022-12-08T14:15:16.672Z,7.50
2022-12-08T14:17:53.060Z,18.00
2022-12-08T14:20:25.649Z,7.10
2022-12-08T14:22:55.128Z,5.70
2022-12-08T14:25:24.588Z,9.70
2022-12-08T14:27:59.861Z,8.73
2022-12-08T14:30:32.944Z,4.27
2022-12-08T14:33:05.154Z,4.47
2022-12-08T14:35:34.917Z,4.00
2022-12-08T14:38:05.469Z,2.67
2022-12-08T14:40:36.241Z,3.90
2022-12-08T14:43:16.325Z,3.00
2022-12-08T14:45:50.679Z,3.60
2022-12-08T14:48:25.561Z,1.97
2022-12-08T14:51:05.382Z,1.30
2022-12-08T14:53:40.689Z,2.13
2022-12-08T14:56:15.237Z,1.80
2022-12-08T14:58:43.716Z,1.60
2022-12-08T15:01:14.824Z,1.60
2022-12-08T15:03:50.717Z,1.80
2022-12-08T15:06:23.036Z,1.33
2022-12-08T15:08:58.777Z,1.77
2022-12-08T15:11:36.949Z,3.13
2022-12-08T15:14:05.567Z,4.73
2022-12-08T15:16:40.721Z,2.20
2022-12-08T15:19:28.458Z,1.83
2022-12-08T15:22:00.094Z,2.17
2022-12-08T15:24:31.965Z,4.27
2022-12-08T15:27:00.414Z,2.77
2022-12-08T15:29:31.428Z,2.47
2022-12-08T15:32:02.608Z,2.83
2022-12-08T15:34:32.724Z,3.77
2022-12-08T15:37:00.980Z,4.53
2022-12-08T15:39:35.005Z,4.30
2022-12-08T15:42:05.904Z,3.57
2022-12-08T15:44:34.315Z,3.87
2022-12-08T15:47:02.807Z,4.40
2022-12-08T15:49:32.551Z,4.73
2022-12-08T15:52:11.168Z,5.70
2022-12-08T15:54:40.752Z,5.37
2022-12-08T15:57:25.051Z,5.67
2022-12-08T16:00:12.111Z,6.07
2022-12-08T16:03:18.491Z,6.30
2022-12-08T16:06:01.629Z,7.60
2022-12-08T16:12:04.603Z,11.47
2022-12-08T16:15:01.762Z,11.07
2022-12-08T16:17:10.087Z,10.97
2022-12-08T16:19:38.524Z,11.70
2022-12-08T16:25:05.005Z,10.70
2022-12-08T16:28:02.887Z,11.67
2022-12-08T16:30:31.940Z,11.87
2022-12-08T16:33:00.362Z,11.93
2022-12-08T16:35:30.934Z,12.10
2022-12-08T16:38:00.646Z,12.57
2022-12-08T16:40:29.024Z,13.40
2022-12-08T16:42:57.315Z,13.30
2022-12-08T16:45:28.117Z,15.50
2022-12-08T16:47:57.900Z,17.90
2022-12-08T16:50:28.348Z,22.50
2022-12-08T16:52:58.756Z,22.10
2022-12-08T16:55:28.921Z,25.20
2022-12-08T16:57:57.621Z,25.27
2022-12-08T17:00:28.352Z,25.07
2022-12-08T17:02:58.602Z,24.50
2022-12-08T17:05:27.761Z,23.90
2022-12-08T17:07:56.175Z,24.03
2022-12-08T17:10:26.785Z,25.17
2022-12-08T17:12:58.319Z,26.17
2022-12-08T17:15:27.263Z,23.93
2022-12-08T17:17:56.136Z,24.37
2022-12-08T17:20:26.781Z,25.40
2022-12-08T17:22:56.368Z,26.00
2022-12-08T17:25:24.930Z,25.00
2022-12-08T17:27:53.340Z,26.00
2022-12-08T17:30:23.204Z,27.57
2022-12-08T17:32:52.775Z,30.73
2022-12-08T17:35:21.644Z,30.13
2022-12-08T17:37:50.022Z,25.03
2022-12-08T17:40:18.476Z,21.67
2022-12-08T17:42:47.058Z,21.17
2022-12-08T17:45:15.481Z,22.53
2022-12-08T17:47:45.275Z,20.27
2022-12-08T17:50:14.741Z,20.10
2022-12-08T17:52:43.083Z,19.43
2022-12-08T17:55:12.430Z,20.77
2022-12-08T17:57:41.415Z,20.20
2022-12-08T18:00:12.889Z,15.63
2022-12-08T18:02:41.282Z,16.13
2022-12-08T18:05:11.542Z,15.53
2022-12-08T18:07:39.913Z,16.70
2022-12-08T18:10:09.783Z,16.90
2022-12-08T18:12:38.319Z,17.73
2022-12-08T18:15:09.512Z,19.63
2022-12-08T18:17:37.975Z,15.70
2022-12-08T18:20:08.278Z,10.93
2022-12-08T18:22:38.164Z,10.10
2022-12-08T18:25:07.589Z,12.97
2022-12-08T18:27:43.052Z,15.00
2022-12-08T18:30:17.199Z,13.43
2022-12-08T18:32:45.879Z,12.03
2022-12-08T18:35:14.783Z,11.20
2022-12-08T18:37:44.562Z,8.73
2022-12-08T18:40:13.867Z,9.17
2022-12-08T18:42:42.342Z,9.07
2022-12-08T18:45:12.151Z,8.60
2022-12-08T18:47:41.527Z,7.43
2022-12-08T18:50:12.443Z,7.43
2022-12-08T18:52:44.409Z,8.23
2022-12-08T18:55:12.748Z,8.17
2022-12-08T18:57:43.135Z,8.13
2022-12-08T19:00:13.532Z,8.17
2022-12-08T19:02:42.813Z,9.37
2022-12-08T19:05:14.425Z,11.47
2022-12-08T19:07:45.782Z,10.20
2022-12-08T19:10:14.876Z,9.57
2022-12-08T19:12:43.329Z,8.67
2022-12-08T19:15:12.653Z,9.57
2022-12-08T19:17:43.124Z,8.50
2022-12-08T19:20:12.827Z,8.60
2022-12-08T19:22:41.213Z,8.33
2022-12-08T19:25:11.611Z,8.30
2022-12-08T19:27:39.948Z,10.23
2022-12-08T19:30:10.379Z,11.33
2022-12-08T19:32:38.848Z,12.90
2022-12-08T19:35:07.609Z,14.17
2022-12-08T19:37:36.701Z,15.40
2022-12-08T19:40:32.344Z,18.17
2022-12-08T19:43:19.411Z,18.97
2022-12-08T19:45:47.870Z,19.40
2022-12-08T19:48:16.228Z,22.37
2022-12-08T19:50:44.695Z,20.97
2022-12-08T19:53:14.892Z,23.20
2022-12-08T19:55:44.431Z,26.23
2022-12-08T19:58:15.580Z,28.67
2022-12-08T20:00:44.988Z,29.93
2022-12-08T20:03:16.722Z,29.27
2022-12-08T20:05:46.271Z,31.33
2022-12-08T20:08:14.719Z,31.83
2022-12-08T20:10:44.746Z,33.87
2022-12-08T20:13:38.108Z,33.03
2022-12-08T20:16:07.210Z,28.67
2022-12-08T20:18:36.590Z,25.80
2022-12-08T20:21:05.939Z,28.93
2022-12-08T20:23:34.812Z,32.53
2022-12-08T20:26:05.881Z,34.53
2022-12-08T20:28:37.287Z,33.23
2022-12-08T20:31:06.281Z,33.90
2022-12-08T20:33:35.239Z,33.97
2022-12-08T20:36:06.189Z,33.40
2022-12-08T20:38:34.682Z,31.27
2022-12-08T20:41:03.077Z,32.13
2022-12-08T20:43:31.524Z,38.00
2022-12-08T20:46:01.292Z,38.93
2022-12-08T20:48:29.992Z,34.93
2022-12-08T20:50:58.360Z,36.03
2022-12-08T20:53:26.820Z,32.37
2022-12-08T20:55:55.945Z,32.03
2022-12-08T20:58:24.663Z,29.67
2022-12-08T21:00:53.818Z,32.00
2022-12-08T21:03:23.799Z,36.10
2022-12-08T21:05:53.552Z,32.50
2022-12-08T21:08:25.162Z,30.20
2022-12-08T21:10:57.377Z,31.03
2022-12-08T21:13:26.428Z,32.80
2022-12-08T21:15:55.151Z,35.47
2022-12-08T21:18:25.413Z,36.67
2022-12-08T21:21:02.309Z,37.70
2022-12-08T21:23:30.754Z,36.60
2022-12-08T21:25:59.140Z,36.27
2022-12-08T21:28:28.586Z,37.20
2022-12-08T21:30:57.015Z,40.40
2022-12-08T21:33:27.281Z,39.97
2022-12-08T21:36:04.057Z,40.87
2022-12-08T21:38:32.717Z,39.83
2022-12-08T21:41:04.762Z,39.40
2022-12-08T21:43:33.551Z,37.83
2022-12-08T21:46:02.409Z,37.17
2022-12-08T21:48:32.355Z,38.43
2022-12-08T21:51:05.811Z,38.43
2022-12-08T21:53:34.265Z,38.07
2022-12-08T21:56:02.641Z,39.27
2022-12-08T21:58:32.705Z,41.17
2022-12-08T22:01:06.883Z,38.37
2022-12-08T22:03:36.997Z,38.03
2022-12-08T22:06:07.084Z,40.17
2022-12-08T22:08:36.069Z,39.67
2022-12-08T22:11:05.585Z,40.60
2022-12-08T22:13:35.682Z,39.73
2022-12-08T22:16:06.836Z,41.23
2022-12-08T22:18:37.448Z,40.20
2022-12-08T22:21:10.626Z,41.73
2022-12-08T22:23:39.320Z,43.27
2022-12-08T22:26:08.682Z,43.30
2022-12-08T22:28:40.238Z,46.03
2022-12-08T22:31:13.587Z,46.97
2022-12-08T22:33:44.407Z,47.37
2022-12-08T22:36:16.590Z,46.80
2022-12-08T22:38:45.317Z,47.37
2022-12-08T22:41:14.097Z,46.40
2022-12-08T22:43:42.997Z,43.93
2022-12-08T22:46:12.766Z,44.03
2022-12-08T22:48:42.733Z,45.17
2022-12-08T22:51:11.637Z,44.27
2022-12-08T22:53:40.267Z,45.13
2022-12-08T22:56:11.008Z,39.87
2022-12-08T22:58:40.241Z,43.20
2022-12-08T23:01:09.447Z,41.23
2022-12-08T23:03:37.956Z,41.50
2022-12-08T23:06:14.988Z,38.37
2022-12-08T23:08:43.494Z,33.13
2022-12-08T23:11:12.148Z,32.13
2022-12-08T23:13:40.821Z,32.03
2022-12-08T23:16:10.370Z,33.03
2022-12-08T23:18:41.347Z,36.17
2022-12-08T23:21:12.738Z,34.73
2022-12-08T23:23:42.656Z,31.93
2022-12-08T23:26:18.452Z,34.13
2022-12-08T23:28:47.078Z,34.80
2022-12-08T23:31:16.110Z,33.83
2022-12-08T23:33:44.784Z,32.73
2022-12-08T23:36:15.159Z,32.53
2022-12-08T23:38:45.120Z,36.30
2022-12-08T23:41:15.714Z,34.27
2022-12-08T23:43:45.622Z,35.30
2022-12-08T23:46:14.572Z,35.10
2022-12-08T23:48:43.300Z,36.63
2022-12-08T23:51:12.660Z,35.60
2022-12-08T23:53:41.595Z,35.33
2022-12-08T23:56:14.524Z,35.27
2022-12-08T23:58:44.157Z,37.07
